createdAt,value
2022-10-18T00:00:02.749Z,89.06
2022-10-18T00:01:02.729Z,88.86
2022-10-18T00:02:02.748Z,88.24
2022-10-18T00:03:02.716Z,87.84
2022-10-18T00:04:02.739Z,88.31
2022-10-18T00:05:02.677Z,88.76
2022-10-18T00:06:02.666Z,89.89
2022-10-18T00:07:02.651Z,90.30
2022-10-18T00:08:02.670Z,89.78
2022-10-18T00:09:02.623Z,89.06
2022-10-18T00:10:02.608Z,88.76
2022-10-18T00:11:02.597Z,89.68
2022-10-18T00:12:02.587Z,90.50
2022-10-18T00:13:02.570Z,90.84
2022-10-18T00:14:02.586Z,90.54
2022-10-18T00:15:02.556Z,90.54
2022-10-18T00:16:02.528Z,90.75
2022-10-18T00:17:02.549Z,90.54
2022-10-18T00:18:02.519Z,90.23
2022-10-18T00:19:02.487Z,90.34
2022-10-18T00:20:02.477Z,90.64
2022-10-18T00:21:02.460Z,90.54
2022-10-18T00:22:02.478Z,90.03
2022-10-18T00:23:02.449Z,89.92
2022-10-18T00:24:02.427Z,89.58
2022-10-18T00:25:02.417Z,89.27
2022-10-18T00:26:02.403Z,89.06
2022-10-18T00:27:02.407Z,89.78
2022-10-18T00:28:02.382Z,90.09
2022-10-18T00:29:02.488Z,89.47
2022-10-18T00:30:02.355Z,89.37
2022-10-18T00:31:02.354Z,89.17
2022-10-18T00:32:02.349Z,89.27
2022-10-18T00:33:02.304Z,89.17
2022-10-18T00:34:02.297Z,88.45
2022-10-18T00:35:02.281Z,88.86
2022-10-18T00:36:02.293Z,88.76
2022-10-18T00:37:02.250Z,88.45
2022-10-18T00:38:02.248Z,88.65
2022-10-18T00:39:02.237Z,88.45
2022-10-18T00:40:02.209Z,88.96
2022-10-18T00:41:02.221Z,89.00
2022-10-18T00:42:02.184Z,88.39
2022-10-18T00:43:02.194Z,88.08
2022-10-18T00:44:02.158Z,88.18
2022-10-18T00:45:02.164Z,88.18
2022-10-18T00:46:02.186Z,88.29
2022-10-18T00:47:02.112Z,88.18
2022-10-18T00:48:02.104Z,87.88
2022-10-18T00:49:02.117Z,88.39
2022-10-18T00:50:02.106Z,89.31
2022-10-18T00:51:02.053Z,89.00
2022-10-18T00:52:02.043Z,89.00
2022-10-18T00:53:02.034Z,88.90
2022-10-18T00:54:02.028Z,89.83
2022-10-18T00:55:02.044Z,89.42
2022-10-18T00:56:02.018Z,89.21
2022-10-18T00:57:01.978Z,88.84
2022-10-18T00:58:01.979Z,88.70
2022-10-18T00:59:01.956Z,89.62
2022-10-18T01:00:01.970Z,90.07
2022-10-18T01:01:01.957Z,89.87
2022-10-18T01:02:02.003Z,89.45
2022-10-18T01:03:01.890Z,89.45
2022-10-18T01:04:01.898Z,89.45
2022-10-18T01:05:01.898Z,90.07
2022-10-18T01:06:01.859Z,90.69
2022-10-18T01:07:01.855Z,89.87
2022-10-18T01:08:01.840Z,89.25
2022-10-18T01:09:01.829Z,89.15
2022-10-18T01:10:01.860Z,88.94
2022-10-18T01:11:01.879Z,89.25
2022-10-18T01:12:01.825Z,90.89
2022-10-18T01:13:01.765Z,90.89
2022-10-18T01:14:01.751Z,90.58
2022-10-18T01:15:01.750Z,89.87
2022-10-18T01:16:01.747Z,89.56
2022-10-18T01:17:01.719Z,89.25
2022-10-18T01:18:01.712Z,90.99
2022-10-18T01:19:01.686Z,92.22
2022-10-18T01:20:01.687Z,92.22
2022-10-18T01:21:01.692Z,91.30
2022-10-18T01:22:01.645Z,90.28
2022-10-18T01:23:01.641Z,89.76
2022-10-18T01:24:01.650Z,89.25
2022-10-18T01:26:01.588Z,89.97
2022-10-18T01:27:01.574Z,89.87
2022-10-18T01:28:01.578Z,90.17
2022-10-18T01:29:01.711Z,90.89
2022-10-18T01:30:01.647Z,90.48
2022-10-18T01:31:01.549Z,90.17
2022-10-18T01:32:01.550Z,90.73
2022-10-18T01:33:01.506Z,90.52
2022-10-18T01:35:01.473Z,90.93
2022-10-18T01:36:01.452Z,91.03
2022-10-18T01:37:01.466Z,90.42
2022-10-18T01:38:01.432Z,90.11
2022-10-18T01:39:01.415Z,90.22
2022-10-18T01:40:01.410Z,90.32
2022-10-18T01:41:01.406Z,90.52
2022-10-18T01:42:01.393Z,90.52
2022-10-18T01:43:01.436Z,90.52
2022-10-18T01:44:01.370Z,90.52
2022-10-18T01:45:01.417Z,90.52
2022-10-18T01:46:01.319Z,90.83
2022-10-18T01:47:01.346Z,90.93
2022-10-18T01:48:01.301Z,90.93
2022-10-18T01:49:01.366Z,90.83
2022-10-18T01:50:01.278Z,90.42
2022-10-18T01:51:01.248Z,90.52
2022-10-18T01:52:01.344Z,90.42
2022-10-18T01:53:01.232Z,90.93
2022-10-18T01:54:01.230Z,91.55
2022-10-18T01:55:01.215Z,91.44
2022-10-18T01:56:01.204Z,91.90
2022-10-18T01:57:01.209Z,91.80
2022-10-18T01:58:01.182Z,91.65
2022-10-18T01:59:01.161Z,91.49
2022-10-18T02:00:01.138Z,92.82
2022-10-18T02:01:01.265Z,92.51
2022-10-18T02:02:01.144Z,92.82
2022-10-18T02:03:01.090Z,93.13
2022-10-18T02:04:01.106Z,93.13
2022-10-18T02:05:01.073Z,93.64
2022-10-18T02:06:01.041Z,93.64
2022-10-18T02:07:01.050Z,94.05
2022-10-18T02:08:12.569Z,93.64
2022-10-18T02:09:01.037Z,93.23
2022-10-18T02:10:01.045Z,92.93
2022-10-18T02:11:00.975Z,93.33
2022-10-18T02:12:00.975Z,93.02
2022-10-18T02:13:00.960Z,92.82
2022-10-18T02:14:00.967Z,92.41
2022-10-18T02:15:00.931Z,93.23
2022-10-18T02:16:00.943Z,93.13
2022-10-18T02:17:00.907Z,93.13
2022-10-18T02:18:00.885Z,92.82
2022-10-18T02:19:00.879Z,93.74
2022-10-18T02:20:00.889Z,93.64
2022-10-18T02:21:00.852Z,93.13
2022-10-18T02:22:00.866Z,92.72
2022-10-18T02:23:00.812Z,93.44
2022-10-18T02:24:00.813Z,94.15
2022-10-18T02:25:00.792Z,94.46
2022-10-18T02:26:00.798Z,94.98
2022-10-18T02:27:00.768Z,94.46
2022-10-18T02:28:00.758Z,93.95
2022-10-18T02:29:00.742Z,93.54
2022-10-18T02:30:00.753Z,92.78
2022-10-18T02:31:00.731Z,92.06
2022-10-18T02:32:00.698Z,91.44
2022-10-18T02:33:00.688Z,90.93
2022-10-18T02:34:00.699Z,90.93
2022-10-18T02:35:00.687Z,90.93
2022-10-18T02:36:00.653Z,91.44
2022-10-18T02:37:00.631Z,91.55
2022-10-18T02:38:00.622Z,91.55
2022-10-18T02:39:00.632Z,91.49
2022-10-18T02:40:00.616Z,91.38
2022-10-18T02:41:00.575Z,91.49
2022-10-18T02:42:00.594Z,91.69
2022-10-18T02:43:00.552Z,92.41
2022-10-18T02:44:00.564Z,92.61
2022-10-18T02:45:00.539Z,92.10
2022-10-18T02:46:00.515Z,91.80
2022-10-18T02:47:00.491Z,92.31
2022-10-18T02:48:00.520Z,92.10
2022-10-18T02:49:00.502Z,92.00
2022-10-18T02:50:00.451Z,91.80
2022-10-18T02:51:00.452Z,91.28
2022-10-18T02:52:00.428Z,90.77
2022-10-18T02:53:00.444Z,91.08
2022-10-18T02:54:00.430Z,91.08
2022-10-18T02:55:00.417Z,90.77
2022-10-18T02:56:00.379Z,91.90
2022-10-18T02:57:00.379Z,92.10
2022-10-18T02:58:00.385Z,91.94
2022-10-18T02:59:00.380Z,91.74
2022-10-18T03:00:00.334Z,91.74
2022-10-18T03:01:00.318Z,91.53
2022-10-18T03:02:00.298Z,91.84
2022-10-18T03:03:00.315Z,91.84
2022-10-18T03:04:00.277Z,91.63
2022-10-18T03:05:00.286Z,91.63
2022-10-18T03:06:00.269Z,91.53
2022-10-18T03:07:00.249Z,91.53
2022-10-18T03:08:00.246Z,91.33
2022-10-18T03:09:00.229Z,91.22
2022-10-18T03:10:00.182Z,91.53
2022-10-18T03:11:00.167Z,91.22
2022-10-18T03:12:00.176Z,91.42
2022-10-18T03:13:00.175Z,91.63
2022-10-18T03:14:00.151Z,91.22
2022-10-18T03:15:00.129Z,91.33
2022-10-18T03:16:00.120Z,91.63
2022-10-18T03:17:00.138Z,92.14
2022-10-18T03:18:00.090Z,92.14
2022-10-18T03:19:00.114Z,92.19
2022-10-18T03:20:00.053Z,92.80
2022-10-18T03:21:00.041Z,93.01
2022-10-18T03:22:00.029Z,93.21
2022-10-18T03:23:00.012Z,93.63
2022-10-18T03:24:00.019Z,93.73
2022-10-18T03:25:00.016Z,94.65
2022-10-18T03:25:59.969Z,94.55
2022-10-18T03:26:59.959Z,94.55
2022-10-18T03:27:59.967Z,94.65
2022-10-18T03:29:00.088Z,94.24
2022-10-18T03:29:59.946Z,94.04
2022-10-18T03:30:59.903Z,93.73
2022-10-18T03:31:59.965Z,93.52
2022-10-18T03:32:59.887Z,94.14
2022-10-18T03:33:59.856Z,94.34
2022-10-18T03:34:59.877Z,94.14
2022-10-18T03:35:59.830Z,93.63
2022-10-18T03:37:02.151Z,93.52
2022-10-18T03:37:59.859Z,93.52
2022-10-18T03:38:59.823Z,93.21
2022-10-18T03:39:59.804Z,93.12
2022-10-18T03:40:59.769Z,93.38
2022-10-18T03:41:59.750Z,94.40
2022-10-18T03:42:59.773Z,94.81
2022-10-18T03:43:59.747Z,95.12
2022-10-18T03:44:59.713Z,95.64
2022-10-18T03:45:59.701Z,95.12
2022-10-18T03:46:59.722Z,94.51
2022-10-18T03:47:59.687Z,96.04
2022-10-18T03:48:59.657Z,95.74
2022-10-18T03:49:59.643Z,95.12
2022-10-18T03:50:59.628Z,94.30
2022-10-18T03:51:59.690Z,93.54
2022-10-18T03:52:59.605Z,92.97
2022-10-18T03:53:59.623Z,92.41
2022-10-18T03:54:59.584Z,92.55
2022-10-18T03:55:59.561Z,92.55
2022-10-18T03:56:59.566Z,92.46
2022-10-18T03:57:59.531Z,92.25
2022-10-18T03:58:59.555Z,92.14
2022-10-18T03:59:59.511Z,92.35
2022-10-18T04:00:59.515Z,92.14
2022-10-18T04:01:59.554Z,92.14
2022-10-18T04:02:59.509Z,91.94
2022-10-18T04:03:59.485Z,91.42
2022-10-18T04:04:59.454Z,91.42
2022-10-18T04:05:59.423Z,91.63
2022-10-18T04:06:59.475Z,92.14
2022-10-18T04:07:59.426Z,92.25
2022-10-18T04:08:59.386Z,92.25
2022-10-18T04:09:59.380Z,93.12
2022-10-18T04:10:59.359Z,93.01
2022-10-18T04:11:59.349Z,92.80
2022-10-18T04:12:59.375Z,92.80
2022-10-18T04:13:59.315Z,93.01
2022-10-18T04:14:59.315Z,92.60
2022-10-18T04:15:59.291Z,92.50
2022-10-18T04:16:59.287Z,92.60
2022-10-18T04:17:59.282Z,92.80
2022-10-18T04:18:59.293Z,93.12
2022-10-18T04:19:59.242Z,93.83
2022-10-18T04:20:59.235Z,93.42
2022-10-18T04:21:59.239Z,93.12
2022-10-18T04:22:59.201Z,93.12
2022-10-18T04:23:59.192Z,93.01
2022-10-18T04:24:59.173Z,93.01
2022-10-18T04:25:59.153Z,93.12
2022-10-18T04:26:59.178Z,93.32
2022-10-18T04:27:59.173Z,93.12
2022-10-18T04:28:59.210Z,93.12
2022-10-18T04:29:59.102Z,93.42
2022-10-18T04:30:59.096Z,93.32
2022-10-18T04:31:59.103Z,93.21
2022-10-18T04:32:59.230Z,92.91
2022-10-18T04:33:59.050Z,93.21
2022-10-18T04:34:59.042Z,93.32
2022-10-18T04:35:59.027Z,93.12
2022-10-18T04:36:59.039Z,93.93
2022-10-18T04:37:59.003Z,94.24
2022-10-18T04:38:59.070Z,94.14
2022-10-18T04:39:58.970Z,94.49
2022-10-18T04:40:58.967Z,94.90
2022-10-18T04:41:58.977Z,94.70
2022-10-18T04:42:58.932Z,95.52
2022-10-18T04:43:58.924Z,94.90
2022-10-18T04:44:58.905Z,94.70
2022-10-18T04:45:58.887Z,94.70
2022-10-18T04:46:58.909Z,94.39
2022-10-18T04:47:58.863Z,94.29
2022-10-18T04:48:58.882Z,93.98
2022-10-18T04:49:58.848Z,93.77
2022-10-18T04:50:58.827Z,93.98
2022-10-18T04:51:58.832Z,94.08
2022-10-18T04:52:58.835Z,93.87
2022-10-18T04:53:58.775Z,94.08
2022-10-18T04:54:58.786Z,94.59
2022-10-18T04:55:58.788Z,94.39
2022-10-18T04:56:58.754Z,94.18
2022-10-18T04:57:58.731Z,94.29
2022-10-18T04:58:58.716Z,94.08
2022-10-18T04:59:58.728Z,94.08
2022-10-18T05:00:58.718Z,94.08
2022-10-18T05:01:58.759Z,93.77
2022-10-18T05:02:58.663Z,93.46
2022-10-18T05:03:58.654Z,93.26
2022-10-18T05:04:58.647Z,92.95
2022-10-18T05:06:03.107Z,92.74
2022-10-18T05:06:58.617Z,92.54
2022-10-18T05:07:58.594Z,92.54
2022-10-18T05:08:58.588Z,92.64
2022-10-18T05:09:58.588Z,92.54
2022-10-18T05:10:58.601Z,92.54
2022-10-18T05:11:58.553Z,92.33
2022-10-18T05:12:58.604Z,93.05
2022-10-18T05:13:58.562Z,94.08
2022-10-18T05:14:58.510Z,93.87
2022-10-18T05:15:58.485Z,93.77
2022-10-18T05:16:58.577Z,93.67
2022-10-18T05:17:58.463Z,93.36
2022-10-18T05:18:58.478Z,93.26
2022-10-18T05:19:58.466Z,93.98
2022-10-18T05:20:58.420Z,94.39
2022-10-18T05:21:58.576Z,94.29
2022-10-18T05:22:58.389Z,94.18
2022-10-18T05:23:58.409Z,94.49
2022-10-18T05:24:58.368Z,94.59
2022-10-18T05:25:58.349Z,94.70
2022-10-18T05:26:58.337Z,94.49
2022-10-18T05:28:00.971Z,94.18
2022-10-18T05:28:58.426Z,94.90
2022-10-18T05:30:01.273Z,94.59
2022-10-18T05:30:58.294Z,94.49
2022-10-18T05:31:58.302Z,94.90
2022-10-18T05:32:58.280Z,95.42
2022-10-18T05:33:58.245Z,95.21
2022-10-18T05:34:58.261Z,95.01
2022-10-18T05:35:58.231Z,95.01
2022-10-18T05:36:58.203Z,94.59
2022-10-18T05:37:58.204Z,94.39
2022-10-18T05:39:00.996Z,94.08
2022-10-18T05:39:58.194Z,94.08
2022-10-18T05:40:58.147Z,93.87
2022-10-18T05:41:58.139Z,94.08
2022-10-18T05:42:58.151Z,93.87
2022-10-18T05:43:58.105Z,93.87
2022-10-18T05:44:58.119Z,93.98
2022-10-18T05:45:58.088Z,94.18
2022-10-18T05:46:58.063Z,94.59
2022-10-18T05:47:58.073Z,94.80
2022-10-18T05:48:58.047Z,95.01
2022-10-18T05:49:58.041Z,95.01
2022-10-18T05:50:58.016Z,94.70
2022-10-18T05:51:57.999Z,94.39
2022-10-18T05:53:06.840Z,94.14
2022-10-18T05:53:58.004Z,94.04
2022-10-18T05:54:57.977Z,94.14
2022-10-18T05:55:57.954Z,94.14
2022-10-18T05:56:57.960Z,93.83
2022-10-18T05:57:57.920Z,93.52
2022-10-18T05:58:57.900Z,93.21
2022-10-18T05:59:57.923Z,93.83
2022-10-18T06:00:57.898Z,93.83
2022-10-18T06:01:57.879Z,93.63
2022-10-18T06:03:00.222Z,93.32
2022-10-18T06:03:57.845Z,93.52
2022-10-18T06:04:57.845Z,93.73
2022-10-18T06:05:57.819Z,93.73
2022-10-18T06:06:57.809Z,94.24
2022-10-18T06:07:57.794Z,94.34
2022-10-18T06:08:57.762Z,94.04
2022-10-18T06:09:57.787Z,94.24
2022-10-18T06:10:57.745Z,94.70
2022-10-18T06:11:57.741Z,95.06
2022-10-18T06:12:57.723Z,95.27
2022-10-18T06:13:57.733Z,95.17
2022-10-18T06:14:57.720Z,95.06
2022-10-18T06:15:57.678Z,95.06
2022-10-18T06:16:57.665Z,95.06
2022-10-18T06:17:57.657Z,94.85
2022-10-18T06:18:57.657Z,95.06
2022-10-18T06:19:57.626Z,94.85
2022-10-18T06:20:57.620Z,94.55
2022-10-18T06:21:57.598Z,94.24
2022-10-18T06:22:57.625Z,93.93
2022-10-18T06:23:57.599Z,94.34
2022-10-18T06:24:57.586Z,94.20
2022-10-18T06:25:57.564Z,94.20
2022-10-18T06:26:57.604Z,94.10
2022-10-18T06:27:57.523Z,93.79
2022-10-18T06:28:57.602Z,93.38
2022-10-18T06:29:57.526Z,93.07
2022-10-18T06:30:57.498Z,93.07
2022-10-18T06:31:57.458Z,92.97
2022-10-18T06:32:57.451Z,92.86
2022-10-18T06:33:57.453Z,92.86
2022-10-18T06:34:57.458Z,93.38
2022-10-18T06:35:57.437Z,93.68
2022-10-18T06:36:58.768Z,93.99
2022-10-18T06:37:57.405Z,94.40
2022-10-18T06:38:57.363Z,93.99
2022-10-18T06:39:57.361Z,94.30
2022-10-18T06:40:57.364Z,94.61
2022-10-18T06:41:57.360Z,94.81
2022-10-18T06:43:00.439Z,95.12
2022-10-18T06:43:57.317Z,95.12
2022-10-18T06:44:57.283Z,95.23
2022-10-18T06:45:57.310Z,94.77
2022-10-18T06:46:57.252Z,94.98
2022-10-18T06:47:57.248Z,95.39
2022-10-18T06:48:57.223Z,95.18
2022-10-18T06:49:57.249Z,95.07
2022-10-18T06:50:57.227Z,94.83
2022-10-18T06:51:57.187Z,94.83
2022-10-18T06:52:57.183Z,95.03
2022-10-18T06:54:16.774Z,95.03
2022-10-18T06:54:57.180Z,94.73
2022-10-18T06:55:57.129Z,94.48
2022-10-18T06:56:57.122Z,94.37
2022-10-18T06:57:57.165Z,94.78
2022-10-18T06:59:57.148Z,94.17
2022-10-18T07:00:57.091Z,93.96
2022-10-18T07:01:57.134Z,94.07
2022-10-18T07:02:57.041Z,93.86
2022-10-18T07:03:57.029Z,93.62
2022-10-18T07:04:57.266Z,93.51
2022-10-18T07:05:57.026Z,93.62
2022-10-18T07:06:56.996Z,93.92
2022-10-18T07:07:56.987Z,94.02
2022-10-18T07:08:56.965Z,94.18
2022-10-18T07:09:56.953Z,94.18
2022-10-18T07:10:56.952Z,94.18
2022-10-18T07:11:56.920Z,94.96
2022-10-18T07:13:13.637Z,94.34
2022-10-18T07:13:56.914Z,94.24
2022-10-18T07:14:56.909Z,93.89
2022-10-18T07:15:56.872Z,92.97
2022-10-18T07:16:56.878Z,92.46
2022-10-18T07:17:56.842Z,92.11
2022-10-18T07:18:56.824Z,91.91
2022-10-18T07:19:56.822Z,92.32
2022-10-18T07:20:56.825Z,91.35
2022-10-18T07:21:56.794Z,91.15
2022-10-18T07:22:56.779Z,91.52
2022-10-18T07:23:56.757Z,88.76
2022-10-18T07:24:56.761Z,88.71
2022-10-18T07:25:56.765Z,88.00
2022-10-18T07:26:56.726Z,87.14
2022-10-18T07:27:56.710Z,87.45
2022-10-18T07:28:56.760Z,86.90
2022-10-18T07:29:56.698Z,85.57
2022-10-18T07:30:56.774Z,84.72
2022-10-18T07:31:56.869Z,84.51
2022-10-18T07:32:56.651Z,84.51
2022-10-18T07:33:56.696Z,84.67
2022-10-18T07:34:56.631Z,82.33
2022-10-18T07:35:56.608Z,82.94
2022-10-18T07:36:56.589Z,83.45
2022-10-18T07:37:56.589Z,82.74
2022-10-18T07:38:56.566Z,83.35
2022-10-18T07:39:56.601Z,83.35
2022-10-18T07:40:56.554Z,83.25
2022-10-18T07:41:56.523Z,83.62
2022-10-18T07:42:56.536Z,83.21
2022-10-18T07:43:56.493Z,82.50
2022-10-18T07:44:56.498Z,82.56
2022-10-18T07:45:56.469Z,82.26
2022-10-18T07:46:56.477Z,80.90
2022-10-18T07:47:56.482Z,81.51
2022-10-18T07:48:56.441Z,79.37
2022-10-18T07:49:56.429Z,78.41
2022-10-18T07:50:56.403Z,78.41
2022-10-18T07:51:56.405Z,78.62
2022-10-18T07:52:56.382Z,77.77
2022-10-18T07:53:56.389Z,78.28
2022-10-18T07:54:56.353Z,79.50
2022-10-18T07:55:56.369Z,79.77
2022-10-18T07:56:56.331Z,80.07
2022-10-18T07:57:56.312Z,80.13
2022-10-18T07:58:56.320Z,79.59
2022-10-18T07:59:56.292Z,80.71
2022-10-18T08:00:56.266Z,79.25
2022-10-18T08:01:56.380Z,78.03
2022-10-18T08:02:56.261Z,76.40
2022-10-18T08:03:56.245Z,76.78
2022-10-18T08:04:56.212Z,72.78
2022-10-18T08:05:56.211Z,70.96
2022-10-18T08:06:56.184Z,69.31
2022-10-18T08:07:56.169Z,69.48
2022-10-18T08:08:56.174Z,70.49
2022-10-18T08:09:56.142Z,71.20
2022-10-18T08:10:56.127Z,70.65
2022-10-18T08:11:56.116Z,71.37
2022-10-18T08:12:56.240Z,70.36
2022-10-18T08:13:56.107Z,69.74
2022-10-18T08:14:56.078Z,71.37
2022-10-18T08:15:56.068Z,71.77
2022-10-18T08:16:56.090Z,72.17
2022-10-18T08:17:56.040Z,71.88
2022-10-18T08:18:56.043Z,71.44
2022-10-18T08:20:11.551Z,71.53
2022-10-18T08:20:56.013Z,71.60
2022-10-18T08:21:56.038Z,70.59
2022-10-18T08:22:59.858Z,71.00
2022-10-18T08:23:55.957Z,69.45
2022-10-18T08:24:55.977Z,69.65
2022-10-18T08:25:55.953Z,71.94
2022-10-18T08:26:55.937Z,70.49
2022-10-18T08:27:55.910Z,68.98
2022-10-18T08:29:10.669Z,67.73
2022-10-18T08:29:55.964Z,68.41
2022-10-18T08:30:55.886Z,67.90
2022-10-18T08:31:55.933Z,67.77
2022-10-18T08:32:55.838Z,66.86
2022-10-18T08:33:55.832Z,65.75
2022-10-18T08:34:55.809Z,67.47
2022-10-18T08:35:55.821Z,66.96
2022-10-18T08:36:55.781Z,66.13
2022-10-18T08:37:55.772Z,66.33
2022-10-18T08:38:55.752Z,65.42
2022-10-18T08:39:55.748Z,66.53
2022-10-18T08:40:55.775Z,66.90
2022-10-18T08:41:55.745Z,63.27
2022-10-18T08:42:55.701Z,64.69
2022-10-18T08:43:55.693Z,65.79
2022-10-18T08:44:55.673Z,65.36
2022-10-18T08:45:55.683Z,63.14
2022-10-18T08:46:55.650Z,64.62
2022-10-18T08:47:55.679Z,66.50
2022-10-18T08:48:55.617Z,64.36
2022-10-18T08:49:55.632Z,64.16
2022-10-18T08:50:55.594Z,64.03
2022-10-18T08:51:55.638Z,63.93
2022-10-18T08:52:55.576Z,63.39
2022-10-18T08:53:55.583Z,63.49
2022-10-18T08:54:55.549Z,64.10
2022-10-18T08:55:55.565Z,61.46
2022-10-18T08:56:55.543Z,61.05
2022-10-18T08:57:55.515Z,60.85
2022-10-18T08:58:55.482Z,60.22
2022-10-18T08:59:55.512Z,60.69
2022-10-18T09:00:55.463Z,60.10
2022-10-18T09:01:55.449Z,60.19
2022-10-18T09:02:55.456Z,58.69
2022-10-18T09:03:55.451Z,59.01
2022-10-18T09:04:55.444Z,59.32
2022-10-18T09:05:55.390Z,59.65
2022-10-18T09:06:55.396Z,60.08
2022-10-18T09:07:55.365Z,59.88
2022-10-18T09:08:55.357Z,60.61
2022-10-18T09:09:55.392Z,61.11
2022-10-18T09:10:55.430Z,62.15
2022-10-18T09:11:58.064Z,62.05
2022-10-18T09:12:55.307Z,62.85
2022-10-18T09:13:55.279Z,63.56
2022-10-18T09:14:55.273Z,62.15
2022-10-18T09:15:55.273Z,62.35
2022-10-18T09:16:55.255Z,62.72
2022-10-18T09:17:55.233Z,62.22
2022-10-18T09:18:55.223Z,62.29
2022-10-18T09:19:55.345Z,62.86
2022-10-18T09:20:55.294Z,62.43
2022-10-18T09:21:55.205Z,61.80
2022-10-18T09:22:55.170Z,61.67
2022-10-18T09:23:55.159Z,60.14
2022-10-18T09:24:55.168Z,59.50
2022-10-18T09:25:55.125Z,58.78
2022-10-18T09:26:55.138Z,59.78
2022-10-18T09:27:55.103Z,58.35
2022-10-18T09:28:55.215Z,55.47
2022-10-18T09:29:55.083Z,55.77
2022-10-18T09:30:57.235Z,56.20
2022-10-18T09:31:55.059Z,55.43
2022-10-18T09:32:55.100Z,55.52
2022-10-18T09:33:55.144Z,54.45
2022-10-18T09:34:55.040Z,55.35
2022-10-18T09:35:55.004Z,55.95
2022-10-18T09:36:55.014Z,55.73
2022-10-18T09:37:54.968Z,56.23
2022-10-18T09:38:57.249Z,55.20
2022-10-18T09:39:54.937Z,55.27
2022-10-18T09:40:54.969Z,54.67
2022-10-18T09:41:54.921Z,54.14
2022-10-18T09:42:54.934Z,53.85
2022-10-18T09:43:54.894Z,52.32
2022-10-18T09:44:54.898Z,51.72
2022-10-18T09:45:54.871Z,52.09
2022-10-18T09:46:54.871Z,51.37
2022-10-18T09:47:54.866Z,52.37
2022-10-18T09:48:54.823Z,52.17
2022-10-18T09:49:54.843Z,52.04
2022-10-18T09:50:54.799Z,51.04
2022-10-18T09:51:54.776Z,50.95
2022-10-18T09:52:54.775Z,51.64
2022-10-18T09:53:54.759Z,51.32
2022-10-18T09:54:54.776Z,52.12
2022-10-18T09:55:54.742Z,51.70
2022-10-18T09:57:54.708Z,50.77
2022-10-18T09:58:54.687Z,50.37
2022-10-18T09:59:54.674Z,51.05
2022-10-18T10:00:54.694Z,50.45
2022-10-18T10:01:54.677Z,50.65
2022-10-18T10:02:54.656Z,49.23
2022-10-18T10:03:54.624Z,48.83
2022-10-18T10:04:54.608Z,48.91
2022-10-18T10:05:54.611Z,48.21
2022-10-18T10:06:54.607Z,48.93
2022-10-18T10:07:54.569Z,49.35
2022-10-18T10:08:54.557Z,48.46
2022-10-18T10:09:54.528Z,50.57
2022-10-18T10:10:54.529Z,50.87
2022-10-18T10:11:54.532Z,51.15
2022-10-18T10:12:54.537Z,51.05
2022-10-18T10:13:54.491Z,51.12
2022-10-18T10:14:54.484Z,51.10
2022-10-18T10:15:54.462Z,50.27
2022-10-18T10:16:54.480Z,49.16
2022-10-18T10:17:54.456Z,49.26
2022-10-18T10:18:54.422Z,47.94
2022-10-18T10:19:54.454Z,48.91
2022-10-18T10:20:54.403Z,47.62
2022-10-18T10:21:54.381Z,47.52
2022-10-18T10:22:54.398Z,46.25
2022-10-18T10:23:54.382Z,47.02
2022-10-18T10:24:54.353Z,45.93
2022-10-18T10:25:54.335Z,46.20
2022-10-18T10:26:54.354Z,46.62
2022-10-18T10:27:54.348Z,46.03
2022-10-18T10:28:54.395Z,46.23
2022-10-18T10:29:54.285Z,46.50
2022-10-18T10:30:54.307Z,46.31
2022-10-18T10:31:54.254Z,46.78
2022-10-18T10:32:54.265Z,46.16
2022-10-18T10:33:54.273Z,46.64
2022-10-18T10:34:54.219Z,45.64
2022-10-18T10:35:54.437Z,46.04
2022-10-18T10:36:54.185Z,46.83
2022-10-18T10:37:54.205Z,45.84
2022-10-18T10:38:54.165Z,45.42
2022-10-18T10:40:13.778Z,46.22
2022-10-18T10:40:54.149Z,45.72
2022-10-18T10:41:54.116Z,46.14
2022-10-18T10:43:00.000Z,47.63
2022-10-18T10:43:54.098Z,47.21
2022-10-18T10:44:54.083Z,46.91
2022-10-18T10:45:54.080Z,46.12
2022-10-18T10:46:54.089Z,46.34
2022-10-18T10:47:54.043Z,45.74
2022-10-18T10:49:09.528Z,46.44
2022-10-18T10:49:54.066Z,46.61
2022-10-18T10:50:55.253Z,46.42
2022-10-18T10:52:02.526Z,47.21
2022-10-18T10:52:53.987Z,47.11
2022-10-18T10:53:54.084Z,46.69
2022-10-18T10:55:05.457Z,46.69
2022-10-18T10:55:53.945Z,46.30
2022-10-18T10:56:53.927Z,45.78
2022-10-18T10:57:53.919Z,45.18
2022-10-18T10:58:53.984Z,46.37
2022-10-18T10:59:53.939Z,46.57
2022-10-18T11:00:53.877Z,45.68
2022-10-18T11:01:53.903Z,45.28
2022-10-18T11:03:00.678Z,44.49
2022-10-18T11:03:53.942Z,45.28
2022-10-18T11:04:53.846Z,45.65
2022-10-18T11:05:53.830Z,44.96
2022-10-18T11:06:53.830Z,45.56
2022-10-18T11:07:53.788Z,47.16
2022-10-18T11:08:53.783Z,47.66
2022-10-18T11:09:53.767Z,45.45
2022-10-18T11:10:53.769Z,45.04
2022-10-18T11:11:53.729Z,44.54
2022-10-18T11:12:53.762Z,44.15
2022-10-18T11:14:07.198Z,44.72
2022-10-18T11:14:53.741Z,44.92
2022-10-18T11:15:53.692Z,44.50
2022-10-18T11:16:53.673Z,43.49
2022-10-18T11:18:53.643Z,42.13
2022-10-18T11:19:53.806Z,43.41
2022-10-18T11:20:53.625Z,42.64
2022-10-18T11:21:53.607Z,42.86
2022-10-18T11:22:53.647Z,44.46
2022-10-18T11:23:53.611Z,43.38
2022-10-18T11:24:53.573Z,44.76
2022-10-18T11:25:53.557Z,44.29
2022-10-18T11:26:53.967Z,44.68
2022-10-18T11:27:53.534Z,45.48
2022-10-18T11:28:53.654Z,45.78
2022-10-18T11:29:53.516Z,45.28
2022-10-18T11:30:53.534Z,43.87
2022-10-18T11:31:53.472Z,44.27
2022-10-18T11:32:53.473Z,43.77
2022-10-18T11:34:10.059Z,42.68
2022-10-18T11:34:53.448Z,44.07
2022-10-18T11:35:53.459Z,43.67
2022-10-18T11:36:56.840Z,42.09
2022-10-18T11:37:53.409Z,41.81
2022-10-18T11:38:53.391Z,42.50
2022-10-18T11:39:53.379Z,43.00
2022-10-18T11:40:53.386Z,44.76
2022-10-18T11:41:53.362Z,43.85
2022-10-18T11:42:53.335Z,43.24
2022-10-18T11:44:03.904Z,42.44
2022-10-18T11:44:53.314Z,41.25
2022-10-18T11:45:53.321Z,41.44
2022-10-18T11:46:53.288Z,39.24
2022-10-18T11:47:55.752Z,39.93
2022-10-18T11:48:53.265Z,38.94
2022-10-18T11:49:53.234Z,39.34
2022-10-18T11:50:53.293Z,39.34
2022-10-18T11:52:07.851Z,39.73
2022-10-18T11:52:53.220Z,41.52
2022-10-18T11:53:53.219Z,39.54
2022-10-18T11:54:53.188Z,39.12
2022-10-18T11:55:53.162Z,39.52
2022-10-18T11:56:53.197Z,40.41
2022-10-18T11:57:53.133Z,40.09
2022-10-18T11:58:53.126Z,39.11
2022-10-18T11:59:53.143Z,40.98
2022-10-18T12:00:53.115Z,40.96
2022-10-18T12:01:53.103Z,39.09
2022-10-18T12:02:53.163Z,39.18
2022-10-18T12:03:53.093Z,41.06
2022-10-18T12:05:05.266Z,40.56
2022-10-18T12:05:53.044Z,38.51
2022-10-18T12:06:53.032Z,39.79
2022-10-18T12:07:53.047Z,42.85
2022-10-18T12:08:53.010Z,43.25
2022-10-18T12:09:57.187Z,42.44
2022-10-18T12:11:04.643Z,41.85
2022-10-18T12:11:55.689Z,40.64
2022-10-18T12:12:52.950Z,40.55
2022-10-18T12:13:52.934Z,40.64
2022-10-18T12:14:52.932Z,39.15
2022-10-18T12:15:52.943Z,39.54
2022-10-18T12:17:07.769Z,38.75
2022-10-18T12:17:53.239Z,39.34
2022-10-18T12:19:52.858Z,39.73
2022-10-18T12:20:52.851Z,39.44
2022-10-18T12:21:52.858Z,38.83
2022-10-18T12:22:52.859Z,39.34
2022-10-18T12:23:52.831Z,38.06
2022-10-18T12:24:52.803Z,38.26
2022-10-18T12:25:52.782Z,37.57
2022-10-18T12:26:52.800Z,38.37
2022-10-18T12:27:52.842Z,38.75
2022-10-18T12:28:52.803Z,39.17
2022-10-18T12:29:52.758Z,39.46
2022-10-18T12:30:52.723Z,39.11
2022-10-18T12:31:52.733Z,40.90
2022-10-18T12:33:02.201Z,40.31
2022-10-18T12:33:52.723Z,40.70
2022-10-18T12:34:52.670Z,39.42
2022-10-18T12:35:52.667Z,40.21
2022-10-18T12:36:52.705Z,41.02
2022-10-18T12:37:52.664Z,42.21
2022-10-18T12:38:52.656Z,43.59
2022-10-18T12:40:52.612Z,44.40
2022-10-18T12:41:52.606Z,41.73
2022-10-18T12:42:52.573Z,42.32
2022-10-18T12:43:52.591Z,42.54
2022-10-18T12:44:52.573Z,42.44
2022-10-18T12:45:52.540Z,43.95
2022-10-18T12:46:52.509Z,44.94
2022-10-18T12:47:52.559Z,44.45
2022-10-18T12:48:52.494Z,44.37
2022-10-18T12:49:52.483Z,45.36
2022-10-18T12:50:52.472Z,44.96
2022-10-18T12:51:52.468Z,45.06
2022-10-18T12:52:52.471Z,44.67
2022-10-18T12:53:52.424Z,44.76
2022-10-18T12:54:52.423Z,45.48
2022-10-18T12:55:52.415Z,45.38
2022-10-18T12:56:52.382Z,45.97
2022-10-18T12:57:52.403Z,45.70
2022-10-18T12:58:52.372Z,46.69